Aérodrome :
LOGIN :

S'inscrire | Disclaimer

   EN    FR    IT 

 










Légende :    VFR   VFR Marginal   IFR   IFR Intensif   IFR Très Intensif
Visi : 
Plafond : 
>= 8 km
>= 3000ft
5 à 8 km
1000 à 3000 ft
1500m à 5 km
500 à 1000 ft
800 à 1500m
200 à 500 ft
< 800m
< 200 ft
Symboles :   Orages  Brouillard  Fortes neiges  Fortes précipitations  Vent > 20 kt
SIGMETs :   Divers  Orages  Givrage  Turbulence  Onde Orograph.  Cendres Volcan.







- Altitude de l'aérodrome : 257 ft
- Code IATA : MAN
- Voir les cartes d'approche


EGCC - Manchester

DERNIER METAR :
  • 170950Z AUTO 34011KT 9999 NCD 15/06 Q1026

METARs EXPIRÉS :
  • 170920Z AUTO 33008KT 280V010 9999 NCD 14/08 Q1026 NOSIG
  • 170850Z AUTO 34008KT 9999 NCD 13/08 Q1026
  • 170820Z AUTO 33005KT 9999 NCD 13/09 Q1026
  • 170750Z AUTO 34005KT 310V010 9999 FEW044 12/09 Q1026
  • 170720Z AUTO VRB03KT 9999 NCD 11/09 Q1026 NOSIG
  • 170650Z AUTO VRB01KT 9999 NCD 10/08 Q1025

TAF TAF EGCC
Valide du 17 à 06h jusqu'au 18 à 12h UTC


170457Z 1706/1812 31005KT 9999 FEW030
PROB30
TEMPO 1706/1708 8000
PROB30 1804/1808 6000
ATIS : +44 161 499 2324
Pas de NOTAMs connus pour ce terrain.



MET'MAP, la Météo Aéronautique d'un coup d'oeil ! - Copyright ORBIFLY Décembre 2007 - Disclaimer

ORBIFLY MET'MAP TEAM :

Programmation & Développement : Alexandra Zaïnal
Conception & Développement : Baudouin d'Aumeries
Co-Programmation & Développement : Marc-Olivier Méhu
Soutien technique & logistique : Manuel Goepfert

Contact : metmap@orbifly.com




SOURCES & CREDITS :

   NOAA